Time;durP1;ratioP1;P1;durP2;ratioP2;P2;SDS_P1;SDS_P2;PMS_P1;PMS_P2;Temp;Humidity;BMP_temperature;BMP_pressure;BME280_temperature;BME280_humidity;BME280_pressure;Samples;Min_cycle;Max_cycle;Signal;HPM_P1;HPM_P2
2021/06/18 00:01:31;;;;;;;3.12;0.75;;;;;;;20.14;54.84;100827.34;1665399;84;21096;-90
2021/06/18 00:03:57;;;;;;;1.80;0.50;;;;;;;20.14;54.93;100827.88;1628047;86;21072;-91
2021/06/18 00:06:24;;;;;;;4.10;0.70;;;;;;;20.10;54.82;100826.70;1641728;85;21231;-91
2021/06/18 00:08:50;;;;;;;;;;;;;;;20.07;55.04;100826.66;1650724;85;21167;-90
2021/06/18 00:11:16;;;;;;;2.08;0.80;;;;;;;20.03;55.08;100823.60;1649330;85;20095;-91
2021/06/18 00:13:43;;;;;;;1.32;0.62;;;;;;;19.95;55.38;100825.34;1659202;84;21094;-89
2021/06/18 00:16:11;;;;;;;1.82;0.68;;;;;;;19.92;55.41;100828.51;1646626;86;21153;-89
2021/06/18 00:18:40;;;;;;;3.40;0.75;;;;;;;19.89;55.61;100822.24;1638479;86;21551;-89
2021/06/18 00:21:07;;;;;;;3.02;0.75;;;;;;;19.85;55.50;100822.41;1634152;85;21530;-91
2021/06/18 00:23:33;;;;;;;0.55;0.40;;;;;;;19.81;55.60;100818.53;1630976;86;21097;-93
2021/06/18 00:26:02;;;;;;;7.87;1.05;;;;;;;19.76;55.68;100816.55;1663521;84;21140;-90
2021/06/18 00:28:28;;;;;;;1.15;0.80;;;;;;;19.72;55.66;100814.52;1663260;84;21057;-89
2021/06/18 00:30:55;;;;;;;1.05;0.50;;;;;;;19.68;55.73;100815.52;1658832;84;21076;-90
2021/06/18 00:33:21;;;;;;;4.78;0.68;;;;;;;19.64;55.70;100818.41;1666956;84;21415;-90
2021/06/18 00:35:48;;;;;;;4.87;0.85;;;;;;;19.59;55.76;100820.48;1687001;83;21047;-90
2021/06/18 00:38:14;;;;;;;;;;;;;;;19.56;55.85;100819.59;1690758;83;21100;-90
2021/06/18 00:40:44;;;;;;;3.80;0.98;;;;;;;19.54;55.75;100820.36;1688350;84;20220;-89
2021/06/18 00:43:11;;;;;;;1.57;0.62;;;;;;;19.47;55.85;100827.77;1663976;84;21058;-90
2021/06/18 00:45:36;;;;;;;;;;;;;;;19.43;55.71;100830.11;1637534;85;21021;-91
2021/06/18 00:48:05;;;;;;;3.50;0.65;;;;;;;19.42;55.72;100823.58;1642289;85;20159;-89
2021/06/18 00:50:32;;;;;;;3.08;0.57;;;;;;;19.35;55.64;100822.36;1657470;85;21609;-88
2021/06/18 00:53:00;;;;;;;0.95;0.68;;;;;;;19.34;55.60;100819.35;1647578;86;21776;-89
2021/06/18 00:55:26;;;;;;;0.90;0.45;;;;;;;19.34;55.57;100816.66;1641309;86;21674;-88
2021/06/18 00:57:54;;;;;;;1.37;0.70;;;;;;;19.37;55.42;100808.62;1655965;84;21083;-89
2021/06/18 01:00:21;;;;;;;2.17;0.30;;;;;;;19.36;55.16;100806.42;1660455;84;21292;-90
2021/06/18 01:02:48;;;;;;;2.35;0.72;;;;;;;19.37;55.14;100809.97;1628828;87;21033;-89
2021/06/18 01:05:18;;;;;;;3.90;1.07;;;;;;;19.36;55.00;100811.83;1628368;87;21132;-90
2021/06/18 01:08:16;;;;;;;1.60;0.60;;;;;;;19.36;54.95;100819.13;1644752;86;21097;-90
2021/06/18 01:11:21;;;;;;;;;;;;;;;19.36;55.18;100809.66;1635080;86;21156;-89
2021/06/18 01:14:13;;;;;;;1.90;0.68;;;;;;;19.32;55.27;100805.25;1635666;87;20405;-88
2021/06/18 01:16:55;;;;;;;0.40;0.40;;;;;;;19.21;55.42;100815.03;1659748;85;21084;-88
2021/06/18 01:19:47;;;;;;;0.75;0.75;;;;;;;19.18;55.70;100811.97;1649630;86;21019;-88
2021/06/18 01:22:15;;;;;;;5.12;0.90;;;;;;;19.15;55.80;100810.53;1646376;86;21018;-88
2021/06/18 01:25:12;;;;;;;2.17;0.50;;;;;;;19.13;56.02;100814.00;1641674;86;21037;-88
2021/06/18 01:27:54;;;;;;;2.52;0.70;;;;;;;19.07;56.16;100812.23;1633718;87;21097;-89
2021/06/18 01:30:25;;;;;;;8.03;0.53;;;;;;;18.96;56.17;100810.34;1600666;87;21048;-87
2021/06/18 01:33:05;;;;;;;0.98;0.42;;;;;;;18.87;56.43;100808.50;1632020;87;21094;-87
2021/06/18 01:35:46;;;;;;;3.12;0.47;;;;;;;18.82;56.62;100805.69;1641559;86;21037;-88
2021/06/18 01:38:16;;;;;;;1.77;0.45;;;;;;;18.75;56.71;100812.50;1637305;87;21598;-87
2021/06/18 01:40:49;;;;;;;1.15;0.60;;;;;;;18.72;56.73;100806.20;1651102;86;21034;-87
2021/06/18 01:43:15;;;;;;;0.42;0.40;;;;;;;18.71;56.78;100803.75;1627964;86;21054;-87
2021/06/18 01:45:48;;;;;;;1.47;0.30;;;;;;;18.72;56.56;100804.84;1642876;85;21047;-88
2021/06/18 01:48:17;;;;;;;2.77;0.45;;;;;;;18.73;56.70;100798.41;1648877;85;21542;-89
2021/06/18 01:50:49;;;;;;;2.47;0.20;;;;;;;18.68;56.63;100800.46;1608494;87;21146;-88
2021/06/18 01:53:20;;;;;;;1.05;0.33;;;;;;;18.65;56.75;100796.86;1629711;85;21113;-88
2021/06/18 01:55:49;;;;;;;1.42;0.50;;;;;;;18.61;56.81;100796.19;1640860;85;21149;-88
2021/06/18 01:58:19;;;;;;;2.40;0.47;;;;;;;18.59;56.88;100795.59;1690136;83;21025;-89
2021/06/18 02:00:50;;;;;;;0.47;0.20;;;;;;;18.60;56.78;100798.07;1698187;83;21063;-89
2021/06/18 02:03:25;;;;;;;3.35;0.47;;;;;;;18.61;56.53;100798.89;1668315;84;21060;-88
2021/06/18 02:05:55;;;;;;;1.95;0.30;;;;;;;18.65;56.29;100798.21;1655430;84;21054;-90
2021/06/18 02:08:23;;;;;;;2.60;0.35;;;;;;;18.62;56.38;100795.15;1682085;83;21215;-90
2021/06/18 02:10:54;;;;;;;0.90;0.50;;;;;;;18.57;56.50;100794.50;1684914;83;21107;-90
2021/06/18 02:13:22;;;;;;;2.37;0.40;;;;;;;18.51;56.74;100791.35;1689042;84;21011;-90
2021/06/18 02:15:49;;;;;;;2.08;0.40;;;;;;;18.48;56.75;100785.89;1680126;84;21074;-90
2021/06/18 02:18:20;;;;;;;1.12;0.30;;;;;;;18.47;56.91;100786.13;1665338;84;21106;-89
2021/06/18 02:20:48;;;;;;;6.12;0.53;;;;;;;18.60;56.50;100786.46;1702520;83;21125;-90
2021/06/18 02:23:16;;;;;;;2.92;0.25;;;;;;;18.77;55.93;100793.37;1685564;84;21029;-90
2021/06/18 02:25:46;;;;;;;0.57;0.53;;;;;;;18.96;55.40;100792.25;1654805;84;21122;-91
2021/06/18 02:28:14;;;;;;;2.37;0.20;;;;;;;19.20;54.93;100793.64;1674342;84;21097;-91
2021/06/18 02:30:41;;;;;;;5.10;0.30;;;;;;;19.39;54.28;100794.34;1660891;85;21027;-88
2021/06/18 02:33:11;;;;;;;2.62;0.28;;;;;;;19.64;53.59;100799.48;1672440;84;21089;-87
2021/06/18 02:35:42;;;;;;;2.33;0.30;;;;;;;19.85;52.97;100804.82;1688932;82;20998;-90
2021/06/18 02:38:10;;;;;;;0.57;0.20;;;;;;;20.01;52.55;100808.14;1672326;85;21148;-90
2021/06/18 02:40:38;;;;;;;0.60;0.40;;;;;;;20.19;52.03;100809.86;1678002;85;21048;-90
2021/06/18 02:43:05;;;;;;;0.60;0.20;;;;;;;20.34;51.84;100810.70;1664587;85;21182;-90
2021/06/18 02:45:34;;;;;;;1.07;0.20;;;;;;;20.52;51.32;100812.36;1660260;85;22322;-91
2021/06/18 02:48:43;;;;;;;5.87;0.65;;;;;;;20.67;50.82;100810.50;1659303;85;21038;-90
2021/06/18 02:51:39;;;;;;;2.02;0.40;;;;;;;20.93;50.09;100813.66;1659164;85;21010;-91
2021/06/18 02:54:31;;;;;;;0.53;0.30;;;;;;;21.13;49.35;100826.16;1672315;84;21033;-89
2021/06/18 02:57:09;;;;;;;0.28;0.20;;;;;;;21.26;49.20;100826.91;1695642;84;21065;-90
2021/06/18 02:59:57;;;;;;;2.05;0.40;;;;;;;21.43;48.91;100823.63;1681489;84;21121;-89
2021/06/18 03:02:31;;;;;;;2.75;0.65;;;;;;;21.53;48.40;100822.47;1726327;81;21536;-90
2021/06/18 03:04:56;;;;;;;0.82;0.55;;;;;;;21.63;48.28;100819.08;1733720;81;21149;-90
2021/06/18 03:07:28;;;;;;;0.80;0.30;;;;;;;21.81;47.92;100827.44;1727109;82;21167;-91
2021/06/18 03:10:01;;;;;;;0.70;0.17;;;;;;;21.99;47.50;100828.23;1729808;82;21038;-91
2021/06/18 03:12:31;;;;;;;6.58;0.50;;;;;;;22.06;47.25;100831.58;1735838;81;21639;-91
2021/06/18 03:15:08;;;;;;;4.25;0.35;;;;;;;22.12;47.17;100834.63;1707147;81;21090;-91
2021/06/18 03:17:39;;;;;;;3.10;0.30;;;;;;;22.35;46.67;100827.58;1733691;81;21026;-91
2021/06/18 03:20:11;;;;;;;1.85;0.50;;;;;;;22.56;46.27;100827.80;1754898;81;21080;-88
2021/06/18 03:22:41;;;;;;;4.30;0.30;;;;;;;22.74;45.84;100834.23;1746680;81;21109;-91
2021/06/18 03:25:09;;;;;;;2.12;0.20;;;;;;;22.94;45.59;100828.69;1682423;82;21048;-90
2021/06/18 03:27:37;;;;;;;1.12;0.20;;;;;;;23.18;44.91;100821.58;1710617;82;21037;-91
2021/06/18 03:30:07;;;;;;;3.95;0.30;;;;;;;23.25;44.68;100822.18;1688403;83;21090;-89
2021/06/18 03:32:39;;;;;;;2.33;0.50;;;;;;;23.31;44.45;100819.22;1676907;84;21159;-89
2021/06/18 03:35:07;;;;;;;2.10;0.25;;;;;;;23.54;44.35;100821.27;1689734;82;21109;-90
2021/06/18 03:37:38;;;;;;;2.67;0.40;;;;;;;23.96;43.63;100823.68;1695481;83;21052;-90
2021/06/18 03:40:06;;;;;;;3.70;0.30;;;;;;;24.28;42.43;100822.18;1694459;83;21022;-91
2021/06/18 03:42:35;;;;;;;2.05;0.20;;;;;;;24.48;42.20;100824.11;1638907;85;21175;-90
2021/06/18 03:45:04;;;;;;;1.40;0.40;;;;;;;24.67;41.59;100821.17;1654635;84;21096;-90
2021/06/18 03:47:33;;;;;;;3.30;0.50;;;;;;;24.66;41.39;100820.91;1656174;84;20999;-91
2021/06/18 03:50:01;;;;;;;4.45;0.45;;;;;;;24.68;41.75;100822.82;1680761;83;21186;-90
2021/06/18 03:52:30;;;;;;;1.85;0.30;;;;;;;24.86;41.36;100827.45;1676586;85;21058;-91
2021/06/18 03:54:57;;;;;;;2.98;0.62;;;;;;;25.17;40.60;100820.66;1673789;85;21054;-91
2021/06/18 03:57:25;;;;;;;1.85;0.40;;;;;;;25.40;40.09;100818.72;1675885;84;21334;-91
2021/06/18 03:59:52;;;;;;;1.05;0.35;;;;;;;25.48;40.29;100817.89;1663484;84;20990;-91
2021/06/18 04:02:21;;;;;;;0.85;0.30;;;;;;;25.73;39.48;100822.45;1679749;84;21061;-91
2021/06/18 04:04:48;;;;;;;2.12;0.10;;;;;;;25.93;39.32;100827.06;1663905;84;21077;-92
2021/06/18 04:10:01;;;;;;;2.40;0.40;;;;;;;26.39;38.26;100821.35;1845931;75;22875;-92
2021/06/18 04:12:29;;;;;;;1.85;0.30;;;;;;;26.52;37.36;100824.01;1828064;75;21542;-92
2021/06/18 04:14:56;;;;;;;1.25;0.15;;;;;;;26.59;37.19;100832.19;1800479;78;21087;-92
2021/06/18 04:17:24;;;;;;;2.37;0.35;;;;;;;26.66;37.17;100831.88;1803121;78;21077;-92
2021/06/18 04:19:52;;;;;;;2.55;0.20;;;;;;;26.71;37.23;100839.22;1809287;78;20986;-92
2021/06/18 04:22:30;;;;;;;1.80;0.20;;;;;;;26.88;36.41;100827.88;1792181;78;21028;-91
2021/06/18 04:24:57;;;;;;;0.90;0.10;;;;;;;26.89;36.34;100837.17;1762973;80;21573;-91
2021/06/18 04:27:24;;;;;;;3.70;0.23;;;;;;;26.95;36.48;100830.55;1765149;80;21017;-90
2021/06/18 04:29:52;;;;;;;1.37;0.10;;;;;;;27.20;35.76;100823.25;1769739;80;21567;-87
2021/06/18 04:32:19;;;;;;;2.77;0.20;;;;;;;27.47;35.24;100824.65;1763831;80;21080;-90
2021/06/18 04:34:48;;;;;;;0.47;0.10;;;;;;;27.67;35.36;100828.53;1758326;80;21058;-90
2021/06/18 04:37:14;;;;;;;0.82;0.20;;;;;;;27.77;35.39;100824.30;1760739;80;20993;-90
2021/06/18 04:39:41;;;;;;;2.55;0.10;;;;;;;27.72;35.06;100831.19;1763814;80;21490;-89
2021/06/18 04:42:07;;;;;;;2.37;0.28;;;;;;;27.54;35.20;100827.86;1761773;80;21586;-90
2021/06/18 04:44:34;;;;;;;1.92;0.10;;;;;;;27.69;35.37;100819.47;1777443;77;21129;-90
2021/06/18 04:47:03;;;;;;;1.85;0.13;;;;;;;27.76;35.04;100819.94;1821283;77;21507;-91
2021/06/18 04:49:30;;;;;;;1.70;0.10;;;;;;;27.45;35.70;100819.45;1808381;77;21130;-92
2021/06/18 04:51:59;;;;;;;0.50;0.20;;;;;;;27.30;36.05;100824.53;1812009;77;21459;-91
2021/06/18 04:54:28;;;;;;;3.60;0.25;;;;;;;27.20;36.21;100834.19;1771933;80;20977;-93
2021/06/18 04:56:54;;;;;;;0.70;0.20;;;;;;;26.86;36.86;100843.23;1702742;80;21030;-91
2021/06/18 04:59:21;;;;;;;1.55;0.10;;;;;;;26.76;36.86;100833.16;1695118;82;21059;-94
2021/06/18 05:01:47;;;;;;;0.70;0.17;;;;;;;26.87;37.12;100831.17;1720600;82;21010;-92
2021/06/18 05:04:15;;;;;;;1.20;0.30;;;;;;;26.88;37.02;100828.72;1720769;83;21012;-92
2021/06/18 05:06:41;;;;;;;3.20;0.30;;;;;;;26.74;37.29;100820.89;1722827;82;21030;-93
2021/06/18 05:09:08;;;;;;;2.40;0.30;;;;;;;26.55;37.60;100820.16;1726692;81;21065;-92
2021/06/18 05:11:35;;;;;;;3.25;0.20;;;;;;;26.55;38.18;100821.53;1716481;83;21094;-90
2021/06/18 05:14:03;;;;;;;4.35;0.20;;;;;;;26.70;37.53;100819.83;1712120;83;21006;-91
2021/06/18 05:16:29;;;;;;;2.42;0.30;;;;;;;26.74;37.56;100815.42;1711764;83;21480;-91
2021/06/18 05:18:56;;;;;;;1.05;0.10;;;;;;;26.66;37.87;100818.21;1709733;83;21022;-94
2021/06/18 05:21:23;;;;;;;1.98;0.15;;;;;;;26.62;37.93;100804.85;1719482;83;21088;-93
2021/06/18 05:23:49;;;;;;;0.70;0.10;;;;;;;26.55;38.11;100801.59;1712234;83;21134;-92
2021/06/18 05:26:16;;;;;;;0.42;0.25;;;;;;;26.45;38.20;100807.11;1718223;83;21093;-92
2021/06/18 05:28:42;;;;;;;1.85;0.30;;;;;;;26.28;38.80;100805.59;1680426;83;21016;-94
2021/06/18 05:31:09;;;;;;;0.88;0.20;;;;;;;26.22;39.00;100802.63;1724780;82;21043;-91
2021/06/18 05:33:35;;;;;;;0.95;0.42;;;;;;;26.33;38.84;100798.70;1707293;82;21030;-90
2021/06/18 05:36:02;;;;;;;1.17;0.40;;;;;;;26.50;38.69;100804.34;1710425;83;21057;-88
2021/06/18 05:38:29;;;;;;;2.75;0.30;;;;;;;26.73;38.31;100800.09;1710950;83;21041;-90
2021/06/18 05:40:55;;;;;;;1.52;0.40;;;;;;;26.87;38.03;100789.34;1715781;83;21667;-90
2021/06/18 05:43:23;;;;;;;0.68;0.20;;;;;;;26.88;37.95;100794.53;1707200;83;21085;-92
2021/06/18 05:45:54;;;;;;;2.25;0.20;;;;;;;26.64;38.39;100798.55;1716879;82;21032;-90
2021/06/18 05:48:18;;;;;;;3.25;0.30;;;;;;;26.39;38.69;100802.22;1734748;81;21068;-90
2021/06/18 05:50:45;;;;;;;3.42;0.25;;;;;;;26.47;39.06;100804.94;1737431;81;21040;-90
2021/06/18 05:53:11;;;;;;;2.55;0.30;;;;;;;26.60;38.62;100801.03;1739510;82;21046;-91
2021/06/18 05:55:38;;;;;;;2.62;0.20;;;;;;;26.59;38.54;100798.55;1731844;82;21049;-86
2021/06/18 05:58:04;;;;;;;1.07;0.20;;;;;;;26.53;38.73;100810.06;1724196;82;21096;-88
2021/06/18 06:00:31;;;;;;;0.53;0.20;;;;;;;26.52;38.59;100802.98;1724436;82;21173;-91
2021/06/18 06:02:58;;;;;;;2.58;0.35;;;;;;;26.34;38.93;100807.19;1756371;80;20997;-91
2021/06/18 06:05:25;;;;;;;2.27;0.10;;;;;;;26.31;38.94;100802.83;1725476;81;20992;-90
2021/06/18 06:07:51;;;;;;;3.70;0.28;;;;;;;26.64;38.19;100803.20;1690605;83;21751;-87
2021/06/18 06:10:18;;;;;;;8.43;0.20;;;;;;;26.68;38.49;100804.27;1717403;82;21031;-88
2021/06/18 06:12:44;;;;;;;3.65;0.20;;;;;;;26.80;37.98;100801.44;1696009;82;21069;-87
2021/06/18 06:15:11;;;;;;;5.33;0.55;;;;;;;26.99;37.54;100805.64;1693443;84;21058;-89
2021/06/18 06:17:40;;;;;;;2.27;0.40;;;;;;;27.19;37.44;100806.55;1663956;85;22274;-89
2021/06/18 06:20:08;;;;;;;3.50;0.20;;;;;;;27.40;37.30;100795.43;1681305;85;21056;-87
2021/06/18 06:22:34;;;;;;;1.22;0.30;;;;;;;27.54;36.73;100801.85;1694307;84;21044;-87
2021/06/18 06:25:04;;;;;;;7.28;0.45;;;;;;;27.55;36.88;100802.09;1678179;85;21044;-92
2021/06/18 06:27:31;;;;;;;3.92;0.20;;;;;;;27.66;36.50;100818.67;1688941;84;21059;-92
2021/06/18 06:29:58;;;;;;;4.00;0.30;;;;;;;27.70;36.31;100812.87;1703538;84;21488;-91
2021/06/18 06:32:25;;;;;;;4.58;0.28;;;;;;;27.76;36.47;100809.52;1693250;83;21130;-90
2021/06/18 06:34:51;;;;;;;3.25;0.20;;;;;;;27.54;36.61;100796.37;1679691;84;21029;-89
2021/06/18 06:37:17;;;;;;;2.95;0.20;;;;;;;27.30;37.34;100799.91;1699008;84;21041;-90
2021/06/18 06:39:44;;;;;;;4.33;0.40;;;;;;;27.17;37.01;100803.29;1689249;84;21039;-91
2021/06/18 06:42:10;;;;;;;20.20;0.40;;;;;;;27.06;37.58;100800.39;1677238;85;21004;-90
2021/06/18 06:44:36;;;;;;;3.20;0.20;;;;;;;27.07;37.53;100809.67;1668495;84;21007;-89
2021/06/18 06:47:03;;;;;;;3.52;0.40;;;;;;;27.21;37.39;100794.77;1683304;83;21079;-90
2021/06/18 06:49:29;;;;;;;5.65;1.17;;;;;;;27.49;36.81;100794.50;1662042;84;21116;-88
2021/06/18 06:51:55;;;;;;;1.27;0.20;;;;;;;27.64;36.99;100789.40;1669001;84;22168;-90
2021/06/18 06:54:25;;;;;;;3.37;0.20;;;;;;;27.69;36.59;100797.56;1681451;84;21123;-92
2021/06/18 06:56:49;;;;;;;1.37;0.20;;;;;;;27.70;36.75;100789.59;1704088;82;21095;-89
2021/06/18 06:59:15;;;;;;;0.78;0.17;;;;;;;27.82;36.85;100793.30;1726350;82;21070;-89
2021/06/18 07:01:44;;;;;;;3.83;0.20;;;;;;;27.86;36.62;100790.77;1715199;82;21009;-91
2021/06/18 07:04:10;;;;;;;2.42;0.37;;;;;;;28.01;36.64;100782.94;1725552;82;21115;-90
2021/06/18 07:06:39;;;;;;;2.33;0.20;;;;;;;27.92;36.59;100781.42;1711709;82;21073;-90
2021/06/18 07:09:08;;;;;;;0.68;0.20;;;;;;;27.83;36.74;100785.89;1729690;82;21116;-89
2021/06/18 07:11:36;;;;;;;0.42;0.20;;;;;;;27.96;36.87;100785.20;1739132;81;21032;-93
2021/06/18 07:14:03;;;;;;;0.90;0.10;;;;;;;28.21;36.94;100773.63;1742005;81;21045;-91
2021/06/18 07:16:31;;;;;;;2.60;0.10;;;;;;;28.32;36.35;100781.95;1736543;81;21038;-91
2021/06/18 07:18:57;;;;;;;2.50;0.15;;;;;;;28.33;36.03;100778.09;1751120;80;21002;-91
2021/06/18 07:21:24;;;;;;;3.08;0.10;;;;;;;28.33;36.18;100778.09;1749776;81;21050;-93
2021/06/18 07:23:52;;;;;;;1.85;0.10;;;;;;;28.15;36.49;100757.25;1706347;82;21046;-91
2021/06/18 07:26:20;;;;;;;2.60;0.15;;;;;;;27.83;36.91;100777.67;1730250;81;20989;-95
2021/06/18 07:28:48;;;;;;;1.57;0.10;;;;;;;27.50;37.49;100760.55;1699087;84;21105;-96
2021/06/18 07:31:15;;;;;;;0.95;0.10;;;;;;;27.44;37.90;100778.12;1710175;81;21072;-89
2021/06/18 07:33:41;;;;;;;2.83;0.10;;;;;;;27.61;37.97;100768.63;1690178;83;21078;-91
2021/06/18 07:36:08;;;;;;;4.00;0.23;;;;;;;27.83;36.47;100777.67;1675738;84;21408;-93
2021/06/18 07:38:37;;;;;;;0.72;0.20;;;;;;;27.76;36.67;100771.17;1711704;82;21025;-96
2021/06/18 07:41:04;;;;;;;1.57;0.20;;;;;;;27.65;37.05;100771.88;1672608;84;21619;-88
2021/06/18 07:43:32;;;;;;;1.27;0.10;;;;;;;27.47;37.18;100786.33;1695575;83;21120;-90
2021/06/18 07:46:02;;;;;;;2.75;0.30;;;;;;;27.15;37.84;100783.61;1751899;80;21077;-93
2021/06/18 07:48:30;;;;;;;4.33;0.13;;;;;;;26.95;38.57;100787.34;1737491;82;21517;-90
2021/06/18 07:50:57;;;;;;;0.68;0.10;;;;;;;26.84;38.61;100783.88;1736384;82;21553;-92
2021/06/18 07:53:24;;;;;;;9.08;0.55;;;;;;;26.66;39.30;100801.00;1710961;83;21472;-91
2021/06/18 07:55:53;;;;;;;0.95;0.20;;;;;;;26.54;39.73;100799.94;1735725;81;20982;-90
2021/06/18 07:58:37;;;;;;;3.98;0.20;;;;;;;26.44;39.86;100795.37;1737487;82;20978;-96
2021/06/18 08:01:11;;;;;;;3.40;0.20;;;;;;;26.38;40.17;100802.78;1691458;82;21075;-95
2021/06/18 08:03:42;;;;;;;2.27;0.30;;;;;;;26.28;40.53;100824.72;1762451;81;21001;-96
2021/06/18 08:06:17;;;;;;;0.98;0.10;;;;;;;26.19;40.76;100839.51;1698209;82;20993;-96
2021/06/18 08:08:46;;;;;;;4.60;0.20;;;;;;;26.11;41.10;100805.14;1773824;80;21070;-94
2021/06/18 08:11:17;;;;;;;1.32;0.17;;;;;;;26.05;41.06;100815.28;1727215;81;21007;-93
2021/06/18 08:13:44;;;;;;;2.37;0.50;;;;;;;26.00;41.36;100824.86;1715590;82;21136;-95
2021/06/18 08:16:12;;;;;;;1.75;0.40;;;;;;;25.97;41.77;100818.58;1732881;82;21010;-94
2021/06/18 08:18:40;;;;;;;0.53;0.10;;;;;;;25.95;41.90;100809.29;1737703;82;21251;-94
2021/06/18 08:21:09;;;;;;;0.78;0.35;;;;;;;25.97;41.99;100814.48;1719202;81;20996;-95
2021/06/18 08:23:41;;;;;;;5.10;0.20;;;;;;;26.02;42.31;100809.00;1707306;82;21046;-96
2021/06/18 08:26:08;;;;;;;4.78;0.60;;;;;;;26.12;41.83;100836.81;1679153;83;21072;-95
2021/06/18 08:28:37;;;;;;;0.78;0.37;;;;;;;26.16;42.00;100834.63;1692542;83;21116;-96
2021/06/18 08:31:07;;;;;;;3.95;0.30;;;;;;;26.16;41.89;100835.98;1704004;83;20958;-94
2021/06/18 08:33:34;;;;;;;6.03;0.60;;;;;;;26.12;41.90;100826.70;1690594;83;21083;-95
2021/06/18 08:36:02;;;;;;;2.55;0.40;;;;;;;26.08;42.24;100826.99;1696308;84;20982;-93
2021/06/18 08:38:29;;;;;;;8.63;0.40;;;;;;;26.10;42.54;100816.60;1701574;81;21022;-93
2021/06/18 08:40:57;;;;;;;8.55;0.20;;;;;;;26.17;42.19;100823.95;1702253;84;21405;-95
2021/06/18 08:43:24;;;;;;;4.60;0.20;;;;;;;26.20;42.19;100822.03;1690085;84;21492;-94
2021/06/18 08:45:55;;;;;;;4.33;0.30;;;;;;;26.21;42.21;100822.84;1664676;83;21073;-96
2021/06/18 08:48:31;;;;;;;1.80;0.30;;;;;;;26.20;42.05;100807.53;1691186;84;21055;-95
2021/06/18 08:51:01;;;;;;;5.35;0.35;;;;;;;26.12;42.38;100807.58;1681175;84;21033;-94
2021/06/18 08:53:37;;;;;;;4.12;0.33;;;;;;;26.10;42.61;100813.87;1695913;84;21008;-94
2021/06/18 08:56:06;;;;;;;4.97;0.30;;;;;;;26.16;42.50;100814.13;1705215;82;21533;-94
2021/06/18 08:58:34;;;;;;;4.72;0.40;;;;;;;26.22;42.55;100799.34;1712469;81;21066;-92
2021/06/18 09:01:03;;;;;;;3.77;0.47;;;;;;;26.31;42.20;100808.30;1715648;81;21057;-93
2021/06/18 09:03:41;;;;;;;2.92;0.50;;;;;;;26.37;41.62;100823.55;1709187;82;21109;-93
2021/06/18 09:08:00;;;;;;;4.15;0.40;;;;;;;26.42;41.75;100823.53;1813728;78;22939;-94
2021/06/18 09:10:44;;;;;;;;;;;;;;;26.40;41.62;100809.34;1791084;80;21042;-93
2021/06/18 09:13:34;;;;;;;3.83;0.35;;;;;;;26.46;41.94;100798.63;1741395;79;20139;-95
2021/06/18 09:16:03;;;;;;;5.97;0.35;;;;;;;26.52;41.33;100785.74;1693273;83;21554;-96
2021/06/18 09:18:39;;;;;;;5.05;0.30;;;;;;;26.60;41.10;100827.00;1731666;81;20945;-96
2021/06/18 09:21:24;;;;;;;1.82;0.20;;;;;;;26.69;41.11;100823.13;1734872;81;21093;-96
2021/06/18 09:23:56;;;;;;;0.20;0.20;;;;;;;26.76;41.26;100808.55;1668208;83;21037;-96
2021/06/18 09:26:39;;;;;;;1.77;0.20;;;;;;;26.85;41.12;100810.13;1704783;83;21085;-96
2021/06/18 09:29:18;;;;;;;1.27;0.20;;;;;;;26.94;40.76;100828.12;1662412;84;21085;-94
2021/06/18 09:32:06;;;;;;;2.60;0.10;;;;;;;26.89;40.46;100804.35;1678883;84;21014;-95
2021/06/18 09:34:59;;;;;;;3.55;0.40;;;;;;;26.80;40.76;100817.00;1674655;84;21113;-95
2021/06/18 09:37:36;;;;;;;4.20;0.15;;;;;;;26.73;40.90;100810.51;1675087;84;21072;-96
2021/06/18 09:40:17;;;;;;;2.70;0.20;;;;;;;26.72;41.04;100806.13;1666139;84;21473;-94
2021/06/18 09:43:01;;;;;;;6.65;0.20;;;;;;;26.78;41.01;100817.28;1677670;84;21028;-95
2021/06/18 09:45:35;;;;;;;3.37;0.57;;;;;;;26.85;41.04;100817.53;1670200;84;21612;-95
2021/06/18 09:48:15;;;;;;;4.85;0.30;;;;;;;26.90;40.76;100794.22;1703832;83;21033;-95
2021/06/18 09:50:47;;;;;;;2.83;0.28;;;;;;;26.93;40.63;100795.83;1670456;84;21381;-95
2021/06/18 09:53:28;;;;;;;2.83;0.15;;;;;;;26.97;40.68;100785.97;1677244;84;21029;-95
2021/06/18 09:56:08;;;;;;;5.80;0.30;;;;;;;27.00;40.86;100812.73;1696445;83;21082;-94
2021/06/18 09:58:48;;;;;;;1.65;0.20;;;;;;;27.08;40.76;100777.66;1683078;84;21026;-95
2021/06/18 10:01:27;;;;;;;1.90;0.40;;;;;;;27.15;40.32;100775.41;1648053;85;21029;-95
2021/06/18 10:04:12;;;;;;;1.35;0.15;;;;;;;27.21;40.39;100783.81;1653487;85;21089;-96
2021/06/18 10:06:51;;;;;;;6.97;0.20;;;;;;;27.25;40.31;100778.58;1648098;86;21072;-95
2021/06/18 10:09:32;;;;;;;3.62;0.20;;;;;;;27.25;40.22;100786.79;1636997;86;21022;-95
2021/06/18 10:12:00;;;;;;;2.40;0.30;;;;;;;27.22;40.42;100777.78;1673945;81;21077;-95
2021/06/18 10:14:29;;;;;;;0.40;0.20;;;;;;;27.21;40.78;100766.03;1642548;86;21052;-96
2021/06/18 10:16:58;;;;;;;3.65;0.33;;;;;;;27.25;40.42;100763.53;1662689;85;20971;-95
2021/06/18 10:19:32;;;;;;;6.05;0.30;;;;;;;27.25;40.75;100758.06;1666292;85;21067;-95
2021/06/18 10:22:18;;;;;;;1.75;0.20;;;;;;;27.30;40.88;100764.33;1655417;85;21022;-96
2021/06/18 10:25:04;;;;;;;7.80;0.30;;;;;;;27.46;40.58;100782.75;1647429;85;21125;-95
2021/06/18 10:27:49;;;;;;;1.32;0.30;;;;;;;27.61;40.39;100768.06;1653856;85;21059;-96
2021/06/18 10:30:45;;;;;;;2.62;0.20;;;;;;;27.76;40.25;100776.66;1646567;85;20983;-96
2021/06/18 10:33:33;;;;;;;3.80;0.30;;;;;;;27.83;39.70;100756.57;1656440;85;21003;-96
2021/06/18 10:36:14;;;;;;;8.20;0.20;;;;;;;27.76;40.04;100787.61;1672514;83;21031;-95
2021/06/18 10:38:50;;;;;;;6.10;0.50;;;;;;;27.71;39.94;100778.91;1683679;83;21658;-96
2021/06/18 10:41:24;;;;;;;5.40;0.20;;;;;;;27.57;40.17;100782.89;1650786;85;21115;-96
2021/06/18 10:43:56;;;;;;;2.33;0.20;;;;;;;27.45;40.45;100780.33;1665127;84;21015;-96
2021/06/18 10:46:39;;;;;;;1.62;0.45;;;;;;;27.37;40.68;100763.43;1722260;81;20990;-95
2021/06/18 10:49:16;;;;;;;5.08;0.25;;;;;;;27.43;41.06;100767.48;1724839;81;21057;-95
2021/06/18 10:51:50;;;;;;;3.83;0.20;;;;;;;27.52;40.78;100743.81;1716262;81;21077;-95
2021/06/18 10:54:58;;;;;;;3.90;0.57;;;;;;;27.55;40.84;100758.30;1710582;81;21006;-95
2021/06/18 10:57:36;;;;;;;2.47;0.30;;;;;;;27.57;40.56;100762.92;1697944;82;20970;-95
2021/06/18 11:00:15;;;;;;;3.05;0.47;;;;;;;27.55;40.79;100756.36;1719877;81;21039;-95
2021/06/18 11:02:46;;;;;;;3.42;0.25;;;;;;;27.61;40.72;100796.02;1667210;85;21038;-95
2021/06/18 11:05:32;;;;;;;1.77;0.40;;;;;;;27.61;40.85;100742.62;1652325;85;20976;-92
2021/06/18 11:08:20;;;;;;;4.03;0.20;;;;;;;27.57;40.83;100760.98;1639142;86;21108;-95
2021/06/18 11:10:57;;;;;;;4.78;0.40;;;;;;;27.53;41.20;100745.45;1644966;87;21074;-96
2021/06/18 11:13:27;;;;;;;4.28;0.50;;;;;;;27.55;41.28;100729.55;1687532;83;21139;-96
2021/06/18 11:15:57;;;;;;;3.62;0.30;;;;;;;27.58;41.17;100764.00;1672352;85;21062;-95
2021/06/18 11:18:37;;;;;;;2.27;0.25;;;;;;;27.61;41.48;100743.98;1686314;83;21096;-95
2021/06/18 11:21:09;;;;;;;6.25;0.20;;;;;;;27.69;41.32;100734.58;1690209;83;21018;-96
2021/06/18 11:24:01;;;;;;;5.15;0.30;;;;;;;27.83;40.84;100727.81;1679325;83;21609;-95
2021/06/18 11:26:34;;;;;;;1.10;0.20;;;;;;;27.92;40.85;100733.48;1695706;84;22149;-96
2021/06/18 11:29:10;;;;;;;4.42;0.47;;;;;;;28.02;40.58;100763.47;1696518;85;21066;-96
2021/06/18 11:31:45;;;;;;;;;;;;;;;28.10;40.31;100737.33;1699953;83;21024;-91
2021/06/18 11:34:32;;;;;;;2.15;0.30;;;;;;;28.09;40.50;100726.92;1674231;84;20114;-91
2021/06/18 11:37:03;;;;;;;2.70;0.20;;;;;;;28.09;40.66;100760.38;1655377;86;21023;-93
2021/06/18 11:39:30;;;;;;;0.72;0.30;;;;;;;28.14;40.61;100738.36;1654631;85;21031;-90
2021/06/18 11:42:00;;;;;;;5.05;0.40;;;;;;;28.13;40.67;100745.77;1662816;85;21099;-93
2021/06/18 11:44:28;;;;;;;1.37;0.55;;;;;;;28.11;40.82;100723.89;1663599;84;21558;-92
2021/06/18 11:46:57;;;;;;;2.50;0.50;;;;;;;28.09;40.45;100719.27;1660698;85;21132;-92
2021/06/18 11:49:26;;;;;;;4.58;0.20;;;;;;;28.06;41.12;100743.95;1679366;85;21133;-88
2021/06/18 11:52:00;;;;;;;4.12;0.20;;;;;;;28.07;40.89;100741.48;1669417;85;21109;-91